<?xml version="1.0" encoding="UTF-8" standalone="no" ?>
<gpx xmlns="http://www.topografix.com/GPX/1/1" xmlns:xsi="http://www.w3.org/2001/XMLSchema-instance" xsi:schemaLocation="http://www.topografix.com/GPX/1/1 http://www.topografix.com/GPX/1/1/gpx.xsd" version="1.1" creator="VisuGPX - https://www.visugpx.com">
  <metadata>
    <name>12116868-Questembert / Les Popinettes</name>
  </metadata>
  <trk>
    <name><![CDATA[12116868-Questembert / Les Popinettes]]></name>
    <trkseg>
      <trkpt lat="47.65634" lon="-2.4816">
        <ele>97</ele>
        <time>2022-10-03T20:20:07Z</time>
      </trkpt>
      <trkpt lat="47.6564" lon="-2.48162">
        <ele>97</ele>
        <time>2022-10-03T20:20:15Z</time>
      </trkpt>
      <trkpt lat="47.65649" lon="-2.48178">
        <ele>97</ele>
        <time>2022-10-03T20:20:34Z</time>
      </trkpt>
      <trkpt lat="47.65704" lon="-2.48197">
        <ele>98</ele>
        <time>2022-10-03T20:21:49Z</time>
      </trkpt>
      <trkpt lat="47.65766" lon="-2.48195">
        <ele>99</ele>
        <time>2022-10-03T20:23:12Z</time>
      </trkpt>
      <trkpt lat="47.65765" lon="-2.48265">
        <ele>97</ele>
        <time>2022-10-03T20:24:15Z</time>
      </trkpt>
      <trkpt lat="47.65766" lon="-2.48265">
        <ele>97</ele>
        <time>2022-10-03T20:24:16Z</time>
      </trkpt>
      <trkpt lat="47.65769" lon="-2.48298">
        <ele>96</ele>
        <time>2022-10-03T20:24:46Z</time>
      </trkpt>
      <trkpt lat="47.65769" lon="-2.48298">
        <ele>96</ele>
        <time>2022-10-03T20:24:46Z</time>
      </trkpt>
      <trkpt lat="47.65779" lon="-2.4833">
        <ele>95</ele>
        <time>2022-10-03T20:25:18Z</time>
      </trkpt>
      <trkpt lat="47.65779" lon="-2.4833">
        <ele>95</ele>
        <time>2022-10-03T20:25:18Z</time>
      </trkpt>
      <trkpt lat="47.65825" lon="-2.484">
        <ele>90</ele>
        <time>2022-10-03T20:26:46Z</time>
      </trkpt>
      <trkpt lat="47.65825" lon="-2.484">
        <ele>90</ele>
        <time>2022-10-03T20:26:46Z</time>
      </trkpt>
      <trkpt lat="47.65825" lon="-2.48464">
        <ele>89</ele>
        <time>2022-10-03T20:27:43Z</time>
      </trkpt>
      <trkpt lat="47.65825" lon="-2.48464">
        <ele>89</ele>
        <time>2022-10-03T20:27:43Z</time>
      </trkpt>
      <trkpt lat="47.65842" lon="-2.48482">
        <ele>88</ele>
        <time>2022-10-03T20:28:11Z</time>
      </trkpt>
      <trkpt lat="47.65842" lon="-2.48482">
        <ele>88</ele>
        <time>2022-10-03T20:28:11Z</time>
      </trkpt>
      <trkpt lat="47.65844" lon="-2.48509">
        <ele>87</ele>
        <time>2022-10-03T20:28:36Z</time>
      </trkpt>
      <trkpt lat="47.65844" lon="-2.48509">
        <ele>87</ele>
        <time>2022-10-03T20:28:36Z</time>
      </trkpt>
      <trkpt lat="47.65807" lon="-2.48624">
        <ele>84</ele>
        <time>2022-10-03T20:30:30Z</time>
      </trkpt>
      <trkpt lat="47.65807" lon="-2.48624">
        <ele>84</ele>
        <time>2022-10-03T20:30:30Z</time>
      </trkpt>
      <trkpt lat="47.65774" lon="-2.48866">
        <ele>78</ele>
        <time>2022-10-03T20:34:12Z</time>
      </trkpt>
      <trkpt lat="47.65774" lon="-2.48866">
        <ele>78</ele>
        <time>2022-10-03T20:34:12Z</time>
      </trkpt>
      <trkpt lat="47.65731" lon="-2.48996">
        <ele>77</ele>
        <time>2022-10-03T20:36:22Z</time>
      </trkpt>
      <trkpt lat="47.65731" lon="-2.48996">
        <ele>77</ele>
        <time>2022-10-03T20:36:22Z</time>
      </trkpt>
      <trkpt lat="47.6566" lon="-2.49087">
        <ele>69</ele>
        <time>2022-10-03T20:38:28Z</time>
      </trkpt>
      <trkpt lat="47.6566" lon="-2.49087">
        <ele>69</ele>
        <time>2022-10-03T20:38:28Z</time>
      </trkpt>
      <trkpt lat="47.6548" lon="-2.49286">
        <ele>59</ele>
        <time>2022-10-03T20:43:27Z</time>
      </trkpt>
      <trkpt lat="47.65479" lon="-2.49286">
        <ele>59</ele>
        <time>2022-10-03T20:43:28Z</time>
      </trkpt>
      <trkpt lat="47.65481" lon="-2.49108">
        <ele>74</ele>
        <time>2022-10-03T20:46:08Z</time>
      </trkpt>
      <trkpt lat="47.65484" lon="-2.4896">
        <ele>84</ele>
        <time>2022-10-03T20:48:22Z</time>
      </trkpt>
      <trkpt lat="47.65483" lon="-2.48913">
        <ele>86</ele>
        <time>2022-10-03T20:49:04Z</time>
      </trkpt>
      <trkpt lat="47.65477" lon="-2.48849">
        <ele>90</ele>
        <time>2022-10-03T20:50:02Z</time>
      </trkpt>
      <trkpt lat="47.65467" lon="-2.48792">
        <ele>92</ele>
        <time>2022-10-03T20:50:55Z</time>
      </trkpt>
      <trkpt lat="47.65458" lon="-2.48764">
        <ele>93</ele>
        <time>2022-10-03T20:51:23Z</time>
      </trkpt>
      <trkpt lat="47.65412" lon="-2.48642">
        <ele>93</ele>
        <time>2022-10-03T20:53:28Z</time>
      </trkpt>
      <trkpt lat="47.65401" lon="-2.48606">
        <ele>92</ele>
        <time>2022-10-03T20:54:04Z</time>
      </trkpt>
      <trkpt lat="47.65392" lon="-2.48576">
        <ele>92</ele>
        <time>2022-10-03T20:54:33Z</time>
      </trkpt>
      <trkpt lat="47.65378" lon="-2.48557">
        <ele>92</ele>
        <time>2022-10-03T20:54:59Z</time>
      </trkpt>
      <trkpt lat="47.65347" lon="-2.48527">
        <ele>93</ele>
        <time>2022-10-03T20:55:48Z</time>
      </trkpt>
      <trkpt lat="47.65343" lon="-2.48519">
        <ele>93</ele>
        <time>2022-10-03T20:55:57Z</time>
      </trkpt>
      <trkpt lat="47.65338" lon="-2.48505">
        <ele>93</ele>
        <time>2022-10-03T20:56:11Z</time>
      </trkpt>
      <trkpt lat="47.65323" lon="-2.48425">
        <ele>91</ele>
        <time>2022-10-03T20:57:26Z</time>
      </trkpt>
      <trkpt lat="47.65304" lon="-2.48331">
        <ele>90</ele>
        <time>2022-10-03T20:58:54Z</time>
      </trkpt>
      <trkpt lat="47.65279" lon="-2.48353">
        <ele>89</ele>
        <time>2022-10-03T20:59:33Z</time>
      </trkpt>
      <trkpt lat="47.65275" lon="-2.48351">
        <ele>89</ele>
        <time>2022-10-03T20:59:39Z</time>
      </trkpt>
      <trkpt lat="47.65253" lon="-2.48362">
        <ele>89</ele>
        <time>2022-10-03T21:00:10Z</time>
      </trkpt>
      <trkpt lat="47.6522" lon="-2.48397">
        <ele>87</ele>
        <time>2022-10-03T21:01:04Z</time>
      </trkpt>
      <trkpt lat="47.6519" lon="-2.48456">
        <ele>85</ele>
        <time>2022-10-03T21:02:10Z</time>
      </trkpt>
      <trkpt lat="47.65179" lon="-2.4849">
        <ele>84</ele>
        <time>2022-10-03T21:02:44Z</time>
      </trkpt>
      <trkpt lat="47.65174" lon="-2.48519">
        <ele>83</ele>
        <time>2022-10-03T21:03:11Z</time>
      </trkpt>
      <trkpt lat="47.65088" lon="-2.4868">
        <ele>76</ele>
        <time>2022-10-03T21:06:16Z</time>
      </trkpt>
      <trkpt lat="47.65083" lon="-2.48675">
        <ele>76</ele>
        <time>2022-10-03T21:06:24Z</time>
      </trkpt>
      <trkpt lat="47.65083" lon="-2.48674">
        <ele>76</ele>
        <time>2022-10-03T21:06:25Z</time>
      </trkpt>
      <trkpt lat="47.65069" lon="-2.4865">
        <ele>78</ele>
        <time>2022-10-03T21:06:53Z</time>
      </trkpt>
      <trkpt lat="47.65069" lon="-2.4865">
        <ele>78</ele>
        <time>2022-10-03T21:06:53Z</time>
      </trkpt>
      <trkpt lat="47.65065" lon="-2.48638">
        <ele>79</ele>
        <time>2022-10-03T21:07:05Z</time>
      </trkpt>
      <trkpt lat="47.65056" lon="-2.4865">
        <ele>79</ele>
        <time>2022-10-03T21:07:21Z</time>
      </trkpt>
      <trkpt lat="47.65031" lon="-2.48658">
        <ele>80</ele>
        <time>2022-10-03T21:07:56Z</time>
      </trkpt>
      <trkpt lat="47.6501" lon="-2.4867">
        <ele>81</ele>
        <time>2022-10-03T21:08:26Z</time>
      </trkpt>
      <trkpt lat="47.64995" lon="-2.48686">
        <ele>79</ele>
        <time>2022-10-03T21:08:50Z</time>
      </trkpt>
      <trkpt lat="47.64973" lon="-2.487">
        <ele>78</ele>
        <time>2022-10-03T21:09:22Z</time>
      </trkpt>
      <trkpt lat="47.64948" lon="-2.48692">
        <ele>81</ele>
        <time>2022-10-03T21:09:56Z</time>
      </trkpt>
      <trkpt lat="47.64933" lon="-2.48701">
        <ele>80</ele>
        <time>2022-10-03T21:10:18Z</time>
      </trkpt>
      <trkpt lat="47.64912" lon="-2.48736">
        <ele>78</ele>
        <time>2022-10-03T21:11:00Z</time>
      </trkpt>
      <trkpt lat="47.64841" lon="-2.48827">
        <ele>73</ele>
        <time>2022-10-03T21:13:05Z</time>
      </trkpt>
      <trkpt lat="47.64819" lon="-2.48832">
        <ele>73</ele>
        <time>2022-10-03T21:13:35Z</time>
      </trkpt>
      <trkpt lat="47.64753" lon="-2.48819">
        <ele>74</ele>
        <time>2022-10-03T21:15:04Z</time>
      </trkpt>
      <trkpt lat="47.64736" lon="-2.48812">
        <ele>73</ele>
        <time>2022-10-03T21:15:27Z</time>
      </trkpt>
      <trkpt lat="47.6473" lon="-2.48798">
        <ele>74</ele>
        <time>2022-10-03T21:15:42Z</time>
      </trkpt>
      <trkpt lat="47.64745" lon="-2.48768">
        <ele>75</ele>
        <time>2022-10-03T21:16:16Z</time>
      </trkpt>
      <trkpt lat="47.64768" lon="-2.48737">
        <ele>77</ele>
        <time>2022-10-03T21:16:57Z</time>
      </trkpt>
      <trkpt lat="47.64764" lon="-2.4868">
        <ele>77</ele>
        <time>2022-10-03T21:17:49Z</time>
      </trkpt>
      <trkpt lat="47.64755" lon="-2.48628">
        <ele>76</ele>
        <time>2022-10-03T21:18:37Z</time>
      </trkpt>
      <trkpt lat="47.64735" lon="-2.48598">
        <ele>75</ele>
        <time>2022-10-03T21:19:15Z</time>
      </trkpt>
      <trkpt lat="47.6472" lon="-2.48605">
        <ele>75</ele>
        <time>2022-10-03T21:19:36Z</time>
      </trkpt>
      <trkpt lat="47.64706" lon="-2.48599">
        <ele>75</ele>
        <time>2022-10-03T21:19:55Z</time>
      </trkpt>
      <trkpt lat="47.64692" lon="-2.48595">
        <ele>75</ele>
        <time>2022-10-03T21:20:14Z</time>
      </trkpt>
      <trkpt lat="47.64669" lon="-2.48606">
        <ele>75</ele>
        <time>2022-10-03T21:20:47Z</time>
      </trkpt>
      <trkpt lat="47.64622" lon="-2.48639">
        <ele>77</ele>
        <time>2022-10-03T21:21:56Z</time>
      </trkpt>
      <trkpt lat="47.64585" lon="-2.48648">
        <ele>79</ele>
        <time>2022-10-03T21:22:46Z</time>
      </trkpt>
      <trkpt lat="47.64559" lon="-2.48647">
        <ele>79</ele>
        <time>2022-10-03T21:23:21Z</time>
      </trkpt>
      <trkpt lat="47.64521" lon="-2.48659">
        <ele>79</ele>
        <time>2022-10-03T21:24:13Z</time>
      </trkpt>
      <trkpt lat="47.64481" lon="-2.48666">
        <ele>78</ele>
        <time>2022-10-03T21:25:06Z</time>
      </trkpt>
      <trkpt lat="47.64459" lon="-2.48698">
        <ele>72</ele>
        <time>2022-10-03T21:25:47Z</time>
      </trkpt>
      <trkpt lat="47.64445" lon="-2.48699">
        <ele>72</ele>
        <time>2022-10-03T21:26:06Z</time>
      </trkpt>
      <trkpt lat="47.64413" lon="-2.48682">
        <ele>73</ele>
        <time>2022-10-03T21:26:52Z</time>
      </trkpt>
      <trkpt lat="47.64396" lon="-2.48679">
        <ele>71</ele>
        <time>2022-10-03T21:27:14Z</time>
      </trkpt>
      <trkpt lat="47.6438" lon="-2.4866">
        <ele>72</ele>
        <time>2022-10-03T21:27:42Z</time>
      </trkpt>
      <trkpt lat="47.64368" lon="-2.48666">
        <ele>70</ele>
        <time>2022-10-03T21:27:59Z</time>
      </trkpt>
      <trkpt lat="47.6435" lon="-2.48666">
        <ele>67</ele>
        <time>2022-10-03T21:28:23Z</time>
      </trkpt>
      <trkpt lat="47.64343" lon="-2.48675">
        <ele>65</ele>
        <time>2022-10-03T21:28:35Z</time>
      </trkpt>
      <trkpt lat="47.6429" lon="-2.48662">
        <ele>58</ele>
        <time>2022-10-03T21:29:47Z</time>
      </trkpt>
      <trkpt lat="47.64277" lon="-2.48651">
        <ele>57</ele>
        <time>2022-10-03T21:30:07Z</time>
      </trkpt>
      <trkpt lat="47.64244" lon="-2.48594">
        <ele>57</ele>
        <time>2022-10-03T21:31:14Z</time>
      </trkpt>
      <trkpt lat="47.64156" lon="-2.48457">
        <ele>61</ele>
        <time>2022-10-03T21:34:04Z</time>
      </trkpt>
      <trkpt lat="47.64148" lon="-2.48449">
        <ele>61</ele>
        <time>2022-10-03T21:34:17Z</time>
      </trkpt>
      <trkpt lat="47.64135" lon="-2.48451">
        <ele>60</ele>
        <time>2022-10-03T21:34:35Z</time>
      </trkpt>
      <trkpt lat="47.64127" lon="-2.48454">
        <ele>59</ele>
        <time>2022-10-03T21:34:46Z</time>
      </trkpt>
      <trkpt lat="47.64106" lon="-2.48453">
        <ele>58</ele>
        <time>2022-10-03T21:35:14Z</time>
      </trkpt>
      <trkpt lat="47.64097" lon="-2.48461">
        <ele>57</ele>
        <time>2022-10-03T21:35:28Z</time>
      </trkpt>
      <trkpt lat="47.64088" lon="-2.48516">
        <ele>52</ele>
        <time>2022-10-03T21:36:19Z</time>
      </trkpt>
      <trkpt lat="47.64076" lon="-2.48529">
        <ele>52</ele>
        <time>2022-10-03T21:36:39Z</time>
      </trkpt>
      <trkpt lat="47.64066" lon="-2.48567">
        <ele>50</ele>
        <time>2022-10-03T21:37:15Z</time>
      </trkpt>
      <trkpt lat="47.64025" lon="-2.48587">
        <ele>50</ele>
        <time>2022-10-03T21:38:13Z</time>
      </trkpt>
      <trkpt lat="47.64001" lon="-2.48592">
        <ele>50</ele>
        <time>2022-10-03T21:38:45Z</time>
      </trkpt>
      <trkpt lat="47.63961" lon="-2.48583">
        <ele>51</ele>
        <time>2022-10-03T21:39:39Z</time>
      </trkpt>
      <trkpt lat="47.63936" lon="-2.48557">
        <ele>52</ele>
        <time>2022-10-03T21:40:20Z</time>
      </trkpt>
      <trkpt lat="47.63861" lon="-2.48542">
        <ele>50</ele>
        <time>2022-10-03T21:42:01Z</time>
      </trkpt>
      <trkpt lat="47.63846" lon="-2.48542">
        <ele>49</ele>
        <time>2022-10-03T21:42:21Z</time>
      </trkpt>
      <trkpt lat="47.63819" lon="-2.48526">
        <ele>48</ele>
        <time>2022-10-03T21:43:00Z</time>
      </trkpt>
      <trkpt lat="47.63808" lon="-2.48514">
        <ele>48</ele>
        <time>2022-10-03T21:43:18Z</time>
      </trkpt>
      <trkpt lat="47.63751" lon="-2.48486">
        <ele>48</ele>
        <time>2022-10-03T21:44:38Z</time>
      </trkpt>
      <trkpt lat="47.6371" lon="-2.4848">
        <ele>47</ele>
        <time>2022-10-03T21:45:33Z</time>
      </trkpt>
      <trkpt lat="47.63691" lon="-2.48464">
        <ele>48</ele>
        <time>2022-10-03T21:46:02Z</time>
      </trkpt>
      <trkpt lat="47.63677" lon="-2.48428">
        <ele>50</ele>
        <time>2022-10-03T21:46:39Z</time>
      </trkpt>
      <trkpt lat="47.63678" lon="-2.48402">
        <ele>51</ele>
        <time>2022-10-03T21:47:03Z</time>
      </trkpt>
      <trkpt lat="47.63764" lon="-2.48324">
        <ele>55</ele>
        <time>2022-10-03T21:49:17Z</time>
      </trkpt>
      <trkpt lat="47.63776" lon="-2.48311">
        <ele>55</ele>
        <time>2022-10-03T21:49:37Z</time>
      </trkpt>
      <trkpt lat="47.63777" lon="-2.48303">
        <ele>55</ele>
        <time>2022-10-03T21:49:45Z</time>
      </trkpt>
      <trkpt lat="47.63756" lon="-2.48186">
        <ele>57</ele>
        <time>2022-10-03T21:51:33Z</time>
      </trkpt>
      <trkpt lat="47.63744" lon="-2.48112">
        <ele>61</ele>
        <time>2022-10-03T21:52:42Z</time>
      </trkpt>
      <trkpt lat="47.63748" lon="-2.48114">
        <ele>61</ele>
        <time>2022-10-03T21:52:47Z</time>
      </trkpt>
      <trkpt lat="47.63763" lon="-2.48122">
        <ele>61</ele>
        <time>2022-10-03T21:53:09Z</time>
      </trkpt>
      <trkpt lat="47.63783" lon="-2.48117">
        <ele>61</ele>
        <time>2022-10-03T21:53:36Z</time>
      </trkpt>
      <trkpt lat="47.63899" lon="-2.4812">
        <ele>61</ele>
        <time>2022-10-03T21:56:11Z</time>
      </trkpt>
      <trkpt lat="47.63907" lon="-2.48121">
        <ele>61</ele>
        <time>2022-10-03T21:56:21Z</time>
      </trkpt>
      <trkpt lat="47.63918" lon="-2.48128">
        <ele>61</ele>
        <time>2022-10-03T21:56:37Z</time>
      </trkpt>
      <trkpt lat="47.63926" lon="-2.48128">
        <ele>61</ele>
        <time>2022-10-03T21:56:48Z</time>
      </trkpt>
      <trkpt lat="47.63942" lon="-2.48119">
        <ele>61</ele>
        <time>2022-10-03T21:57:11Z</time>
      </trkpt>
      <trkpt lat="47.63954" lon="-2.48121">
        <ele>60</ele>
        <time>2022-10-03T21:57:27Z</time>
      </trkpt>
      <trkpt lat="47.63965" lon="-2.48125">
        <ele>60</ele>
        <time>2022-10-03T21:57:42Z</time>
      </trkpt>
      <trkpt lat="47.63968" lon="-2.48125">
        <ele>60</ele>
        <time>2022-10-03T21:57:46Z</time>
      </trkpt>
      <trkpt lat="47.6399" lon="-2.4812">
        <ele>60</ele>
        <time>2022-10-03T21:58:16Z</time>
      </trkpt>
      <trkpt lat="47.64006" lon="-2.48111">
        <ele>60</ele>
        <time>2022-10-03T21:58:39Z</time>
      </trkpt>
      <trkpt lat="47.64006" lon="-2.48109">
        <ele>60</ele>
        <time>2022-10-03T21:58:40Z</time>
      </trkpt>
      <trkpt lat="47.6403" lon="-2.48073">
        <ele>62</ele>
        <time>2022-10-03T21:59:26Z</time>
      </trkpt>
      <trkpt lat="47.6403" lon="-2.48073">
        <ele>62</ele>
        <time>2022-10-03T21:59:26Z</time>
      </trkpt>
      <trkpt lat="47.64073" lon="-2.4805">
        <ele>65</ele>
        <time>2022-10-03T22:00:27Z</time>
      </trkpt>
      <trkpt lat="47.64073" lon="-2.4805">
        <ele>65</ele>
        <time>2022-10-03T22:00:27Z</time>
      </trkpt>
      <trkpt lat="47.64097" lon="-2.4803">
        <ele>68</ele>
        <time>2022-10-03T22:01:04Z</time>
      </trkpt>
      <trkpt lat="47.64097" lon="-2.4803">
        <ele>68</ele>
        <time>2022-10-03T22:01:04Z</time>
      </trkpt>
      <trkpt lat="47.64212" lon="-2.48009">
        <ele>75</ele>
        <time>2022-10-03T22:03:39Z</time>
      </trkpt>
      <trkpt lat="47.64212" lon="-2.48009">
        <ele>75</ele>
        <time>2022-10-03T22:03:39Z</time>
      </trkpt>
      <trkpt lat="47.64276" lon="-2.48019">
        <ele>78</ele>
        <time>2022-10-03T22:05:05Z</time>
      </trkpt>
      <trkpt lat="47.64283" lon="-2.48014">
        <ele>78</ele>
        <time>2022-10-03T22:05:15Z</time>
      </trkpt>
      <trkpt lat="47.64293" lon="-2.47944">
        <ele>76</ele>
        <time>2022-10-03T22:06:19Z</time>
      </trkpt>
      <trkpt lat="47.64325" lon="-2.47591">
        <ele>78</ele>
        <time>2022-10-03T22:11:40Z</time>
      </trkpt>
      <trkpt lat="47.64336" lon="-2.47483">
        <ele>82</ele>
        <time>2022-10-03T22:13:18Z</time>
      </trkpt>
      <trkpt lat="47.64375" lon="-2.4716">
        <ele>89</ele>
        <time>2022-10-03T22:18:13Z</time>
      </trkpt>
      <trkpt lat="47.64366" lon="-2.47141">
        <ele>89</ele>
        <time>2022-10-03T22:18:34Z</time>
      </trkpt>
      <trkpt lat="47.64362" lon="-2.47107">
        <ele>89</ele>
        <time>2022-10-03T22:19:05Z</time>
      </trkpt>
      <trkpt lat="47.64373" lon="-2.46992">
        <ele>89</ele>
        <time>2022-10-03T22:20:49Z</time>
      </trkpt>
      <trkpt lat="47.64381" lon="-2.46935">
        <ele>89</ele>
        <time>2022-10-03T22:21:42Z</time>
      </trkpt>
      <trkpt lat="47.64384" lon="-2.46888">
        <ele>89</ele>
        <time>2022-10-03T22:22:24Z</time>
      </trkpt>
      <trkpt lat="47.64385" lon="-2.46841">
        <ele>90</ele>
        <time>2022-10-03T22:23:06Z</time>
      </trkpt>
      <trkpt lat="47.64379" lon="-2.46779">
        <ele>89</ele>
        <time>2022-10-03T22:24:03Z</time>
      </trkpt>
      <trkpt lat="47.6437" lon="-2.4674">
        <ele>88</ele>
        <time>2022-10-03T22:24:40Z</time>
      </trkpt>
      <trkpt lat="47.64359" lon="-2.46713">
        <ele>87</ele>
        <time>2022-10-03T22:25:08Z</time>
      </trkpt>
      <trkpt lat="47.64337" lon="-2.46669">
        <ele>86</ele>
        <time>2022-10-03T22:25:57Z</time>
      </trkpt>
      <trkpt lat="47.64258" lon="-2.46536">
        <ele>87</ele>
        <time>2022-10-03T22:28:37Z</time>
      </trkpt>
      <trkpt lat="47.64237" lon="-2.46507">
        <ele>86</ele>
        <time>2022-10-03T22:29:15Z</time>
      </trkpt>
      <trkpt lat="47.64146" lon="-2.46404">
        <ele>86</ele>
        <time>2022-10-03T22:31:48Z</time>
      </trkpt>
      <trkpt lat="47.64153" lon="-2.46388">
        <ele>86</ele>
        <time>2022-10-03T22:32:05Z</time>
      </trkpt>
      <trkpt lat="47.64203" lon="-2.46339">
        <ele>82</ele>
        <time>2022-10-03T22:33:25Z</time>
      </trkpt>
      <trkpt lat="47.6422" lon="-2.46333">
        <ele>82</ele>
        <time>2022-10-03T22:33:48Z</time>
      </trkpt>
      <trkpt lat="47.64274" lon="-2.46348">
        <ele>81</ele>
        <time>2022-10-03T22:35:01Z</time>
      </trkpt>
      <trkpt lat="47.64313" lon="-2.46333">
        <ele>79</ele>
        <time>2022-10-03T22:35:55Z</time>
      </trkpt>
      <trkpt lat="47.64406" lon="-2.46279">
        <ele>75</ele>
        <time>2022-10-03T22:38:08Z</time>
      </trkpt>
      <trkpt lat="47.64472" lon="-2.46228">
        <ele>74</ele>
        <time>2022-10-03T22:39:48Z</time>
      </trkpt>
      <trkpt lat="47.64491" lon="-2.46222">
        <ele>74</ele>
        <time>2022-10-03T22:40:14Z</time>
      </trkpt>
      <trkpt lat="47.64561" lon="-2.46167">
        <ele>75</ele>
        <time>2022-10-03T22:41:59Z</time>
      </trkpt>
      <trkpt lat="47.64607" lon="-2.46135">
        <ele>76</ele>
        <time>2022-10-03T22:43:07Z</time>
      </trkpt>
      <trkpt lat="47.64658" lon="-2.46113">
        <ele>77</ele>
        <time>2022-10-03T22:44:18Z</time>
      </trkpt>
      <trkpt lat="47.64716" lon="-2.46103">
        <ele>76</ele>
        <time>2022-10-03T22:45:36Z</time>
      </trkpt>
      <trkpt lat="47.64731" lon="-2.46099">
        <ele>75</ele>
        <time>2022-10-03T22:45:56Z</time>
      </trkpt>
      <trkpt lat="47.64744" lon="-2.461">
        <ele>75</ele>
        <time>2022-10-03T22:46:14Z</time>
      </trkpt>
      <trkpt lat="47.6476" lon="-2.46106">
        <ele>74</ele>
        <time>2022-10-03T22:46:36Z</time>
      </trkpt>
      <trkpt lat="47.64769" lon="-2.46106">
        <ele>74</ele>
        <time>2022-10-03T22:46:48Z</time>
      </trkpt>
      <trkpt lat="47.64783" lon="-2.4609">
        <ele>73</ele>
        <time>2022-10-03T22:47:11Z</time>
      </trkpt>
      <trkpt lat="47.64789" lon="-2.46075">
        <ele>73</ele>
        <time>2022-10-03T22:47:27Z</time>
      </trkpt>
      <trkpt lat="47.64802" lon="-2.46057">
        <ele>72</ele>
        <time>2022-10-03T22:47:51Z</time>
      </trkpt>
      <trkpt lat="47.64815" lon="-2.46047">
        <ele>71</ele>
        <time>2022-10-03T22:48:10Z</time>
      </trkpt>
      <trkpt lat="47.64834" lon="-2.46035">
        <ele>69</ele>
        <time>2022-10-03T22:48:38Z</time>
      </trkpt>
      <trkpt lat="47.64861" lon="-2.46027">
        <ele>70</ele>
        <time>2022-10-03T22:49:15Z</time>
      </trkpt>
      <trkpt lat="47.64887" lon="-2.46026">
        <ele>70</ele>
        <time>2022-10-03T22:49:49Z</time>
      </trkpt>
      <trkpt lat="47.64915" lon="-2.46049">
        <ele>71</ele>
        <time>2022-10-03T22:50:32Z</time>
      </trkpt>
      <trkpt lat="47.64938" lon="-2.46063">
        <ele>74</ele>
        <time>2022-10-03T22:51:05Z</time>
      </trkpt>
      <trkpt lat="47.64951" lon="-2.46066">
        <ele>75</ele>
        <time>2022-10-03T22:51:23Z</time>
      </trkpt>
      <trkpt lat="47.64972" lon="-2.4606">
        <ele>78</ele>
        <time>2022-10-03T22:51:51Z</time>
      </trkpt>
      <trkpt lat="47.64973" lon="-2.46068">
        <ele>78</ele>
        <time>2022-10-03T22:51:59Z</time>
      </trkpt>
      <trkpt lat="47.64971" lon="-2.46074">
        <ele>78</ele>
        <time>2022-10-03T22:52:05Z</time>
      </trkpt>
      <trkpt lat="47.64972" lon="-2.46072">
        <ele>78</ele>
        <time>2022-10-03T22:52:07Z</time>
      </trkpt>
      <trkpt lat="47.65013" lon="-2.46069">
        <ele>83</ele>
        <time>2022-10-03T22:53:02Z</time>
      </trkpt>
      <trkpt lat="47.65013" lon="-2.46069">
        <ele>83</ele>
        <time>2022-10-03T22:53:02Z</time>
      </trkpt>
      <trkpt lat="47.65028" lon="-2.46075">
        <ele>85</ele>
        <time>2022-10-03T22:53:22Z</time>
      </trkpt>
      <trkpt lat="47.65028" lon="-2.46075">
        <ele>85</ele>
        <time>2022-10-03T22:53:22Z</time>
      </trkpt>
      <trkpt lat="47.65061" lon="-2.46045">
        <ele>90</ele>
        <time>2022-10-03T22:54:14Z</time>
      </trkpt>
      <trkpt lat="47.65061" lon="-2.46045">
        <ele>90</ele>
        <time>2022-10-03T22:54:14Z</time>
      </trkpt>
      <trkpt lat="47.65094" lon="-2.45996">
        <ele>94</ele>
        <time>2022-10-03T22:55:16Z</time>
      </trkpt>
      <trkpt lat="47.65094" lon="-2.45996">
        <ele>94</ele>
        <time>2022-10-03T22:55:16Z</time>
      </trkpt>
      <trkpt lat="47.65198" lon="-2.45902">
        <ele>95</ele>
        <time>2022-10-03T22:57:59Z</time>
      </trkpt>
      <trkpt lat="47.65198" lon="-2.45902">
        <ele>95</ele>
        <time>2022-10-03T22:57:59Z</time>
      </trkpt>
      <trkpt lat="47.6523" lon="-2.45869">
        <ele>94</ele>
        <time>2022-10-03T22:58:51Z</time>
      </trkpt>
      <trkpt lat="47.6523" lon="-2.45869">
        <ele>94</ele>
        <time>2022-10-03T22:58:51Z</time>
      </trkpt>
      <trkpt lat="47.65263" lon="-2.45823">
        <ele>92</ele>
        <time>2022-10-03T22:59:51Z</time>
      </trkpt>
      <trkpt lat="47.65263" lon="-2.45823">
        <ele>92</ele>
        <time>2022-10-03T22:59:51Z</time>
      </trkpt>
      <trkpt lat="47.6529" lon="-2.45779">
        <ele>90</ele>
        <time>2022-10-03T23:00:45Z</time>
      </trkpt>
      <trkpt lat="47.6529" lon="-2.45779">
        <ele>90</ele>
        <time>2022-10-03T23:00:45Z</time>
      </trkpt>
      <trkpt lat="47.6532" lon="-2.4572">
        <ele>85</ele>
        <time>2022-10-03T23:01:51Z</time>
      </trkpt>
      <trkpt lat="47.6532" lon="-2.4572">
        <ele>85</ele>
        <time>2022-10-03T23:01:51Z</time>
      </trkpt>
      <trkpt lat="47.65339" lon="-2.45673">
        <ele>81</ele>
        <time>2022-10-03T23:02:40Z</time>
      </trkpt>
      <trkpt lat="47.65339" lon="-2.45673">
        <ele>81</ele>
        <time>2022-10-03T23:02:40Z</time>
      </trkpt>
      <trkpt lat="47.65364" lon="-2.45632">
        <ele>79</ele>
        <time>2022-10-03T23:03:30Z</time>
      </trkpt>
      <trkpt lat="47.65364" lon="-2.45632">
        <ele>79</ele>
        <time>2022-10-03T23:03:30Z</time>
      </trkpt>
      <trkpt lat="47.65373" lon="-2.45597">
        <ele>79</ele>
        <time>2022-10-03T23:04:04Z</time>
      </trkpt>
      <trkpt lat="47.65373" lon="-2.45597">
        <ele>79</ele>
        <time>2022-10-03T23:04:04Z</time>
      </trkpt>
      <trkpt lat="47.6545" lon="-2.45514">
        <ele>74</ele>
        <time>2022-10-03T23:06:11Z</time>
      </trkpt>
      <trkpt lat="47.6545" lon="-2.45514">
        <ele>74</ele>
        <time>2022-10-03T23:06:11Z</time>
      </trkpt>
      <trkpt lat="47.65457" lon="-2.45465">
        <ele>72</ele>
        <time>2022-10-03T23:06:56Z</time>
      </trkpt>
      <trkpt lat="47.65457" lon="-2.45465">
        <ele>72</ele>
        <time>2022-10-03T23:06:56Z</time>
      </trkpt>
      <trkpt lat="47.65468" lon="-2.45421">
        <ele>70</ele>
        <time>2022-10-03T23:07:38Z</time>
      </trkpt>
      <trkpt lat="47.65468" lon="-2.45421">
        <ele>70</ele>
        <time>2022-10-03T23:07:38Z</time>
      </trkpt>
      <trkpt lat="47.65496" lon="-2.4537">
        <ele>71</ele>
        <time>2022-10-03T23:08:37Z</time>
      </trkpt>
      <trkpt lat="47.65496" lon="-2.4537">
        <ele>71</ele>
        <time>2022-10-03T23:08:37Z</time>
      </trkpt>
      <trkpt lat="47.65525" lon="-2.45358">
        <ele>70</ele>
        <time>2022-10-03T23:09:17Z</time>
      </trkpt>
      <trkpt lat="47.65525" lon="-2.45358">
        <ele>70</ele>
        <time>2022-10-03T23:09:17Z</time>
      </trkpt>
      <trkpt lat="47.65564" lon="-2.45365">
        <ele>70</ele>
        <time>2022-10-03T23:10:10Z</time>
      </trkpt>
      <trkpt lat="47.65564" lon="-2.45365">
        <ele>70</ele>
        <time>2022-10-03T23:10:10Z</time>
      </trkpt>
      <trkpt lat="47.65583" lon="-2.45387">
        <ele>71</ele>
        <time>2022-10-03T23:10:42Z</time>
      </trkpt>
      <trkpt lat="47.65583" lon="-2.45387">
        <ele>71</ele>
        <time>2022-10-03T23:10:42Z</time>
      </trkpt>
      <trkpt lat="47.65602" lon="-2.45437">
        <ele>73</ele>
        <time>2022-10-03T23:11:34Z</time>
      </trkpt>
      <trkpt lat="47.65602" lon="-2.45437">
        <ele>73</ele>
        <time>2022-10-03T23:11:34Z</time>
      </trkpt>
      <trkpt lat="47.65606" lon="-2.45468">
        <ele>74</ele>
        <time>2022-10-03T23:12:02Z</time>
      </trkpt>
      <trkpt lat="47.65606" lon="-2.45468">
        <ele>74</ele>
        <time>2022-10-03T23:12:02Z</time>
      </trkpt>
      <trkpt lat="47.65635" lon="-2.45552">
        <ele>76</ele>
        <time>2022-10-03T23:13:27Z</time>
      </trkpt>
      <trkpt lat="47.65635" lon="-2.45552">
        <ele>76</ele>
        <time>2022-10-03T23:13:27Z</time>
      </trkpt>
      <trkpt lat="47.6568" lon="-2.45626">
        <ele>78</ele>
        <time>2022-10-03T23:14:57Z</time>
      </trkpt>
      <trkpt lat="47.6568" lon="-2.45626">
        <ele>78</ele>
        <time>2022-10-03T23:14:57Z</time>
      </trkpt>
      <trkpt lat="47.65704" lon="-2.4567">
        <ele>78</ele>
        <time>2022-10-03T23:15:47Z</time>
      </trkpt>
      <trkpt lat="47.65704" lon="-2.4567">
        <ele>78</ele>
        <time>2022-10-03T23:15:47Z</time>
      </trkpt>
      <trkpt lat="47.65729" lon="-2.4576">
        <ele>81</ele>
        <time>2022-10-03T23:17:15Z</time>
      </trkpt>
      <trkpt lat="47.65729" lon="-2.4576">
        <ele>81</ele>
        <time>2022-10-03T23:17:15Z</time>
      </trkpt>
      <trkpt lat="47.65744" lon="-2.45816">
        <ele>83</ele>
        <time>2022-10-03T23:18:09Z</time>
      </trkpt>
      <trkpt lat="47.65744" lon="-2.45816">
        <ele>83</ele>
        <time>2022-10-03T23:18:09Z</time>
      </trkpt>
      <trkpt lat="47.65749" lon="-2.45881">
        <ele>85</ele>
        <time>2022-10-03T23:19:08Z</time>
      </trkpt>
      <trkpt lat="47.65749" lon="-2.45881">
        <ele>85</ele>
        <time>2022-10-03T23:19:08Z</time>
      </trkpt>
      <trkpt lat="47.65765" lon="-2.45907">
        <ele>84</ele>
        <time>2022-10-03T23:19:40Z</time>
      </trkpt>
      <trkpt lat="47.65765" lon="-2.45907">
        <ele>84</ele>
        <time>2022-10-03T23:19:40Z</time>
      </trkpt>
      <trkpt lat="47.65788" lon="-2.45925">
        <ele>82</ele>
        <time>2022-10-03T23:20:14Z</time>
      </trkpt>
      <trkpt lat="47.65788" lon="-2.45925">
        <ele>82</ele>
        <time>2022-10-03T23:20:14Z</time>
      </trkpt>
      <trkpt lat="47.65817" lon="-2.45927">
        <ele>78</ele>
        <time>2022-10-03T23:20:53Z</time>
      </trkpt>
      <trkpt lat="47.65817" lon="-2.45927">
        <ele>78</ele>
        <time>2022-10-03T23:20:53Z</time>
      </trkpt>
      <trkpt lat="47.65838" lon="-2.45975">
        <ele>79</ele>
        <time>2022-10-03T23:21:45Z</time>
      </trkpt>
      <trkpt lat="47.65838" lon="-2.45975">
        <ele>79</ele>
        <time>2022-10-03T23:21:45Z</time>
      </trkpt>
      <trkpt lat="47.65934" lon="-2.46197">
        <ele>79</ele>
        <time>2022-10-03T23:25:42Z</time>
      </trkpt>
      <trkpt lat="47.65934" lon="-2.46197">
        <ele>79</ele>
        <time>2022-10-03T23:25:42Z</time>
      </trkpt>
      <trkpt lat="47.65943" lon="-2.46238">
        <ele>81</ele>
        <time>2022-10-03T23:26:20Z</time>
      </trkpt>
      <trkpt lat="47.65943" lon="-2.46238">
        <ele>81</ele>
        <time>2022-10-03T23:26:20Z</time>
      </trkpt>
      <trkpt lat="47.65937" lon="-2.46277">
        <ele>83</ele>
        <time>2022-10-03T23:26:56Z</time>
      </trkpt>
      <trkpt lat="47.65937" lon="-2.46277">
        <ele>83</ele>
        <time>2022-10-03T23:26:56Z</time>
      </trkpt>
      <trkpt lat="47.65917" lon="-2.463">
        <ele>86</ele>
        <time>2022-10-03T23:27:30Z</time>
      </trkpt>
      <trkpt lat="47.65917" lon="-2.463">
        <ele>86</ele>
        <time>2022-10-03T23:27:30Z</time>
      </trkpt>
      <trkpt lat="47.65886" lon="-2.46336">
        <ele>88</ele>
        <time>2022-10-03T23:28:23Z</time>
      </trkpt>
      <trkpt lat="47.65886" lon="-2.46336">
        <ele>88</ele>
        <time>2022-10-03T23:28:23Z</time>
      </trkpt>
      <trkpt lat="47.65876" lon="-2.46371">
        <ele>90</ele>
        <time>2022-10-03T23:28:57Z</time>
      </trkpt>
      <trkpt lat="47.65876" lon="-2.46371">
        <ele>90</ele>
        <time>2022-10-03T23:28:57Z</time>
      </trkpt>
      <trkpt lat="47.65877" lon="-2.46397">
        <ele>91</ele>
        <time>2022-10-03T23:29:20Z</time>
      </trkpt>
      <trkpt lat="47.65878" lon="-2.46399">
        <ele>91</ele>
        <time>2022-10-03T23:29:23Z</time>
      </trkpt>
      <trkpt lat="47.6588" lon="-2.46393">
        <ele>91</ele>
        <time>2022-10-03T23:29:29Z</time>
      </trkpt>
      <trkpt lat="47.65884" lon="-2.46392">
        <ele>91</ele>
        <time>2022-10-03T23:29:34Z</time>
      </trkpt>
      <trkpt lat="47.65902" lon="-2.46367">
        <ele>89</ele>
        <time>2022-10-03T23:30:07Z</time>
      </trkpt>
      <trkpt lat="47.65928" lon="-2.46342">
        <ele>85</ele>
        <time>2022-10-03T23:30:48Z</time>
      </trkpt>
      <trkpt lat="47.65946" lon="-2.46329">
        <ele>83</ele>
        <time>2022-10-03T23:31:15Z</time>
      </trkpt>
      <trkpt lat="47.65958" lon="-2.46326">
        <ele>81</ele>
        <time>2022-10-03T23:31:31Z</time>
      </trkpt>
      <trkpt lat="47.65964" lon="-2.4633">
        <ele>81</ele>
        <time>2022-10-03T23:31:40Z</time>
      </trkpt>
      <trkpt lat="47.65971" lon="-2.46351">
        <ele>81</ele>
        <time>2022-10-03T23:32:01Z</time>
      </trkpt>
      <trkpt lat="47.65997" lon="-2.46409">
        <ele>81</ele>
        <time>2022-10-03T23:33:04Z</time>
      </trkpt>
      <trkpt lat="47.66028" lon="-2.46489">
        <ele>83</ele>
        <time>2022-10-03T23:34:27Z</time>
      </trkpt>
      <trkpt lat="47.6605" lon="-2.46535">
        <ele>84</ele>
        <time>2022-10-03T23:35:17Z</time>
      </trkpt>
      <trkpt lat="47.66055" lon="-2.46539">
        <ele>83</ele>
        <time>2022-10-03T23:35:25Z</time>
      </trkpt>
      <trkpt lat="47.66062" lon="-2.46536">
        <ele>82</ele>
        <time>2022-10-03T23:35:35Z</time>
      </trkpt>
      <trkpt lat="47.66068" lon="-2.46528">
        <ele>81</ele>
        <time>2022-10-03T23:35:45Z</time>
      </trkpt>
      <trkpt lat="47.66069" lon="-2.46521">
        <ele>81</ele>
        <time>2022-10-03T23:35:52Z</time>
      </trkpt>
      <trkpt lat="47.66075" lon="-2.46306">
        <ele>81</ele>
        <time>2022-10-03T23:39:05Z</time>
      </trkpt>
      <trkpt lat="47.66083" lon="-2.46301">
        <ele>82</ele>
        <time>2022-10-03T23:39:17Z</time>
      </trkpt>
      <trkpt lat="47.66082" lon="-2.46333">
        <ele>81</ele>
        <time>2022-10-03T23:39:46Z</time>
      </trkpt>
      <trkpt lat="47.66097" lon="-2.46356">
        <ele>82</ele>
        <time>2022-10-03T23:40:14Z</time>
      </trkpt>
      <trkpt lat="47.66107" lon="-2.46402">
        <ele>81</ele>
        <time>2022-10-03T23:40:58Z</time>
      </trkpt>
      <trkpt lat="47.66115" lon="-2.46488">
        <ele>80</ele>
        <time>2022-10-03T23:42:16Z</time>
      </trkpt>
      <trkpt lat="47.66115" lon="-2.46556">
        <ele>81</ele>
        <time>2022-10-03T23:43:17Z</time>
      </trkpt>
      <trkpt lat="47.66126" lon="-2.46565">
        <ele>81</ele>
        <time>2022-10-03T23:43:34Z</time>
      </trkpt>
      <trkpt lat="47.66121" lon="-2.46573">
        <ele>81</ele>
        <time>2022-10-03T23:43:43Z</time>
      </trkpt>
      <trkpt lat="47.66112" lon="-2.46593">
        <ele>82</ele>
        <time>2022-10-03T23:44:05Z</time>
      </trkpt>
      <trkpt lat="47.66106" lon="-2.46631">
        <ele>85</ele>
        <time>2022-10-03T23:44:40Z</time>
      </trkpt>
      <trkpt lat="47.6611" lon="-2.46643">
        <ele>85</ele>
        <time>2022-10-03T23:44:52Z</time>
      </trkpt>
      <trkpt lat="47.66122" lon="-2.46655">
        <ele>84</ele>
        <time>2022-10-03T23:45:12Z</time>
      </trkpt>
      <trkpt lat="47.66139" lon="-2.46664">
        <ele>82</ele>
        <time>2022-10-03T23:45:36Z</time>
      </trkpt>
      <trkpt lat="47.66158" lon="-2.46667">
        <ele>78</ele>
        <time>2022-10-03T23:46:01Z</time>
      </trkpt>
      <trkpt lat="47.66192" lon="-2.46707">
        <ele>80</ele>
        <time>2022-10-03T23:46:59Z</time>
      </trkpt>
      <trkpt lat="47.6622" lon="-2.46771">
        <ele>82</ele>
        <time>2022-10-03T23:48:08Z</time>
      </trkpt>
      <trkpt lat="47.66232" lon="-2.46803">
        <ele>82</ele>
        <time>2022-10-03T23:48:40Z</time>
      </trkpt>
      <trkpt lat="47.66257" lon="-2.46851">
        <ele>82</ele>
        <time>2022-10-03T23:49:35Z</time>
      </trkpt>
      <trkpt lat="47.66262" lon="-2.46856">
        <ele>82</ele>
        <time>2022-10-03T23:49:43Z</time>
      </trkpt>
      <trkpt lat="47.66275" lon="-2.4686">
        <ele>82</ele>
        <time>2022-10-03T23:50:01Z</time>
      </trkpt>
      <trkpt lat="47.66284" lon="-2.46859">
        <ele>82</ele>
        <time>2022-10-03T23:50:13Z</time>
      </trkpt>
      <trkpt lat="47.66297" lon="-2.46853">
        <ele>82</ele>
        <time>2022-10-03T23:50:31Z</time>
      </trkpt>
      <trkpt lat="47.66319" lon="-2.46838">
        <ele>82</ele>
        <time>2022-10-03T23:51:03Z</time>
      </trkpt>
      <trkpt lat="47.66326" lon="-2.4687">
        <ele>83</ele>
        <time>2022-10-03T23:51:34Z</time>
      </trkpt>
      <trkpt lat="47.6633" lon="-2.46905">
        <ele>84</ele>
        <time>2022-10-03T23:52:05Z</time>
      </trkpt>
      <trkpt lat="47.6633" lon="-2.46945">
        <ele>84</ele>
        <time>2022-10-03T23:52:41Z</time>
      </trkpt>
      <trkpt lat="47.66335" lon="-2.46974">
        <ele>84</ele>
        <time>2022-10-03T23:53:08Z</time>
      </trkpt>
      <trkpt lat="47.66333" lon="-2.47006">
        <ele>84</ele>
        <time>2022-10-03T23:53:37Z</time>
      </trkpt>
      <trkpt lat="47.66336" lon="-2.4702">
        <ele>85</ele>
        <time>2022-10-03T23:53:50Z</time>
      </trkpt>
      <trkpt lat="47.66343" lon="-2.47037">
        <ele>86</ele>
        <time>2022-10-03T23:54:08Z</time>
      </trkpt>
      <trkpt lat="47.6636" lon="-2.47085">
        <ele>88</ele>
        <time>2022-10-03T23:54:57Z</time>
      </trkpt>
      <trkpt lat="47.66381" lon="-2.47133">
        <ele>89</ele>
        <time>2022-10-03T23:55:48Z</time>
      </trkpt>
      <trkpt lat="47.66388" lon="-2.47143">
        <ele>89</ele>
        <time>2022-10-03T23:56:01Z</time>
      </trkpt>
      <trkpt lat="47.66404" lon="-2.47149">
        <ele>89</ele>
        <time>2022-10-03T23:56:23Z</time>
      </trkpt>
      <trkpt lat="47.66418" lon="-2.47159">
        <ele>89</ele>
        <time>2022-10-03T23:56:44Z</time>
      </trkpt>
      <trkpt lat="47.66428" lon="-2.47173">
        <ele>89</ele>
        <time>2022-10-03T23:57:03Z</time>
      </trkpt>
      <trkpt lat="47.66432" lon="-2.47195">
        <ele>90</ele>
        <time>2022-10-03T23:57:23Z</time>
      </trkpt>
      <trkpt lat="47.66458" lon="-2.47209">
        <ele>90</ele>
        <time>2022-10-03T23:58:00Z</time>
      </trkpt>
      <trkpt lat="47.66487" lon="-2.47232">
        <ele>89</ele>
        <time>2022-10-03T23:58:44Z</time>
      </trkpt>
      <trkpt lat="47.66507" lon="-2.47252">
        <ele>88</ele>
        <time>2022-10-03T23:59:16Z</time>
      </trkpt>
      <trkpt lat="47.66534" lon="-2.47288">
        <ele>88</ele>
        <time>2022-10-04T00:00:04Z</time>
      </trkpt>
      <trkpt lat="47.66549" lon="-2.47329">
        <ele>89</ele>
        <time>2022-10-04T00:00:46Z</time>
      </trkpt>
      <trkpt lat="47.66563" lon="-2.4736">
        <ele>90</ele>
        <time>2022-10-04T00:01:20Z</time>
      </trkpt>
      <trkpt lat="47.66577" lon="-2.47419">
        <ele>91</ele>
        <time>2022-10-04T00:02:16Z</time>
      </trkpt>
      <trkpt lat="47.66575" lon="-2.47436">
        <ele>91</ele>
        <time>2022-10-04T00:02:32Z</time>
      </trkpt>
      <trkpt lat="47.66527" lon="-2.47582">
        <ele>93</ele>
        <time>2022-10-04T00:04:58Z</time>
      </trkpt>
      <trkpt lat="47.66522" lon="-2.47591">
        <ele>93</ele>
        <time>2022-10-04T00:05:08Z</time>
      </trkpt>
      <trkpt lat="47.66474" lon="-2.47629">
        <ele>94</ele>
        <time>2022-10-04T00:06:21Z</time>
      </trkpt>
      <trkpt lat="47.6649" lon="-2.47674">
        <ele>94</ele>
        <time>2022-10-04T00:07:06Z</time>
      </trkpt>
      <trkpt lat="47.66482" lon="-2.47675">
        <ele>95</ele>
        <time>2022-10-04T00:07:17Z</time>
      </trkpt>
      <trkpt lat="47.66373" lon="-2.47746">
        <ele>97</ele>
        <time>2022-10-04T00:09:56Z</time>
      </trkpt>
      <trkpt lat="47.66328" lon="-2.47772">
        <ele>98</ele>
        <time>2022-10-04T00:11:00Z</time>
      </trkpt>
      <trkpt lat="47.66295" lon="-2.47785">
        <ele>98</ele>
        <time>2022-10-04T00:11:46Z</time>
      </trkpt>
      <trkpt lat="47.66205" lon="-2.47811">
        <ele>98</ele>
        <time>2022-10-04T00:13:48Z</time>
      </trkpt>
      <trkpt lat="47.66021" lon="-2.47919">
        <ele>96</ele>
        <time>2022-10-04T00:18:12Z</time>
      </trkpt>
      <trkpt lat="47.65921" lon="-2.47972">
        <ele>97</ele>
        <time>2022-10-04T00:20:34Z</time>
      </trkpt>
      <trkpt lat="47.65828" lon="-2.48008">
        <ele>100</ele>
        <time>2022-10-04T00:22:42Z</time>
      </trkpt>
      <trkpt lat="47.65816" lon="-2.48133">
        <ele>100</ele>
        <time>2022-10-04T00:24:36Z</time>
      </trkpt>
      <trkpt lat="47.6582" lon="-2.48172">
        <ele>100</ele>
        <time>2022-10-04T00:25:11Z</time>
      </trkpt>
      <trkpt lat="47.65814" lon="-2.48184">
        <ele>99</ele>
        <time>2022-10-04T00:25:25Z</time>
      </trkpt>
      <trkpt lat="47.65766" lon="-2.48195">
        <ele>99</ele>
        <time>2022-10-04T00:26:29Z</time>
      </trkpt>
      <trkpt lat="47.65704" lon="-2.48197">
        <ele>98</ele>
        <time>2022-10-04T00:27:52Z</time>
      </trkpt>
      <trkpt lat="47.65649" lon="-2.48178">
        <ele>97</ele>
        <time>2022-10-04T00:29:08Z</time>
      </trkpt>
      <trkpt lat="47.6564" lon="-2.48162">
        <ele>97</ele>
        <time>2022-10-04T00:29:26Z</time>
      </trkpt>
      <trkpt lat="47.65634" lon="-2.4816">
        <ele>97</ele>
        <time>2022-10-04T00:29:35Z</time>
      </trkpt>
    </trkseg>
  </trk>
</gpx>